createdAt,value
2018-09-22T00:02:27.344Z,77.60
2018-09-22T00:04:55.738Z,77.55
2018-09-22T00:07:24.283Z,76.95
2018-09-22T00:09:52.723Z,76.86
2018-09-22T00:12:21.247Z,75.56
2018-09-22T00:14:50.012Z,76.04
2018-09-22T00:17:18.562Z,75.91
2018-09-22T00:19:47.036Z,76.68
2018-09-22T00:22:15.907Z,77.73
2018-09-22T00:24:44.441Z,78.23
2018-09-22T00:27:12.955Z,77.82
2018-09-22T00:29:41.433Z,77.58
2018-09-22T00:32:09.904Z,79.84
2018-09-22T00:34:38.373Z,80.12
2018-09-22T00:37:07.132Z,80.70
2018-09-22T00:39:35.600Z,80.22
2018-09-22T00:42:04.100Z,80.64
2018-09-22T00:44:32.807Z,79.35
2018-09-22T00:47:01.281Z,80.43
2018-09-22T00:49:29.727Z,79.04
2018-09-22T00:51:58.140Z,78.76
2018-09-22T00:54:26.537Z,78.12
2018-09-22T00:56:55.161Z,80.52
2018-09-22T00:59:23.609Z,80.99
2018-09-22T01:01:52.043Z,81.61
2018-09-22T01:04:20.618Z,82.70
2018-09-22T01:06:49.100Z,83.49
2018-09-22T01:09:17.762Z,84.01
2018-09-22T01:11:46.293Z,83.28
2018-09-22T01:14:14.772Z,84.05
2018-09-22T01:16:43.213Z,83.79
2018-09-22T01:19:11.661Z,83.84
2018-09-22T01:21:40.204Z,84.02
2018-09-22T01:24:09.088Z,83.29
2018-09-22T01:26:37.584Z,83.91
2018-09-22T01:29:06.098Z,83.67
2018-09-22T01:31:34.469Z,83.43
2018-09-22T01:34:02.876Z,81.64
2018-09-22T01:36:31.366Z,81.57
2018-09-22T01:38:59.903Z,81.57
2018-09-22T01:41:28.460Z,83.03
2018-09-22T01:43:56.947Z,84.55
2018-09-22T01:46:25.415Z,85.58
2018-09-22T01:48:53.884Z,85.63
2018-09-22T01:51:22.341Z,86.28
2018-09-22T01:53:50.751Z,88.19
2018-09-22T01:56:19.171Z,89.69
2018-09-22T01:58:47.629Z,89.95
2018-09-22T02:01:16.081Z,89.35
2018-09-22T02:03:44.463Z,88.89
2018-09-22T02:06:13.004Z,88.83
2018-09-22T02:08:41.413Z,88.30
2018-09-22T02:11:09.802Z,89.56
2018-09-22T02:13:38.248Z,88.00
2018-09-22T02:16:06.762Z,87.49
2018-09-22T02:18:35.195Z,86.82
2018-09-22T02:21:04.117Z,86.71
2018-09-22T02:23:32.973Z,85.75
2018-09-22T02:26:01.420Z,85.68
2018-09-22T02:28:29.884Z,84.24
2018-09-22T02:30:58.470Z,83.64
2018-09-22T02:33:26.874Z,82.54
2018-09-22T02:35:55.838Z,83.70
2018-09-22T02:38:24.302Z,80.56
2018-09-22T02:40:52.872Z,81.02
2018-09-22T02:43:21.337Z,80.91
2018-09-22T02:45:49.787Z,81.22
2018-09-22T02:48:18.185Z,81.52
2018-09-22T02:50:47.489Z,81.19
2018-09-22T02:53:15.941Z,81.71
2018-09-22T02:55:44.389Z,81.21
2018-09-22T02:58:13.097Z,82.35
2018-09-22T03:00:41.538Z,82.42
2018-09-22T03:03:12.300Z,82.62
2018-09-22T03:05:41.120Z,82.00
2018-09-22T03:08:09.515Z,81.94
2018-09-22T03:10:37.946Z,81.96
2018-09-22T03:13:06.469Z,82.95
2018-09-22T03:15:34.976Z,82.72
2018-09-22T03:18:03.615Z,82.85
2018-09-22T03:20:32.123Z,83.59
2018-09-22T03:23:00.638Z,83.98
2018-09-22T03:25:29.095Z,83.81
2018-09-22T03:27:57.525Z,83.61
2018-09-22T03:30:25.993Z,83.57
2018-09-22T03:32:54.409Z,84.11
2018-09-22T03:35:23.522Z,83.79
2018-09-22T03:37:52.900Z,83.95
2018-09-22T03:40:22.064Z,84.32
2018-09-22T03:42:50.765Z,84.20
2018-09-22T03:45:19.288Z,84.34
2018-09-22T03:47:48.036Z,84.50
2018-09-22T03:50:17.475Z,85.25
2018-09-22T03:52:46.095Z,85.81
2018-09-22T03:55:14.579Z,86.12
2018-09-22T03:57:43.104Z,85.67
2018-09-22T04:00:12.412Z,85.33
2018-09-22T04:02:40.856Z,85.52
2018-09-22T04:05:09.467Z,85.70
2018-09-22T04:07:38.772Z,86.19
2018-09-22T04:10:07.412Z,86.11
2018-09-22T04:12:35.913Z,85.92
2018-09-22T04:15:04.544Z,86.60
2018-09-22T04:17:33.010Z,86.43
2018-09-22T04:20:01.502Z,86.76
2018-09-22T04:22:30.224Z,86.70
2018-09-22T04:24:58.754Z,86.03
2018-09-22T04:27:27.332Z,86.78
2018-09-22T04:29:56.521Z,86.52
2018-09-22T04:32:25.092Z,86.28
2018-09-22T04:34:54.481Z,85.88
2018-09-22T04:37:23.123Z,85.62
2018-09-22T04:39:51.832Z,86.55
2018-09-22T04:42:20.692Z,85.87
2018-09-22T04:44:49.133Z,86.20
2018-09-22T04:47:17.530Z,85.74
2018-09-22T04:49:45.931Z,85.91
2018-09-22T04:52:14.525Z,86.31
2018-09-22T04:54:43.008Z,86.52
2018-09-22T04:57:11.535Z,86.99
2018-09-22T04:59:40.056Z,86.59
2018-09-22T05:02:09.585Z,86.20
2018-09-22T05:04:38.614Z,86.81
2018-09-22T05:07:07.301Z,86.83
2018-09-22T05:09:35.948Z,86.28
2018-09-22T05:12:04.645Z,86.69
2018-09-22T05:14:33.225Z,86.59
2018-09-22T05:17:01.764Z,86.59
2018-09-22T05:19:30.312Z,86.87
2018-09-22T05:21:58.810Z,86.84
2018-09-22T05:24:27.365Z,87.10
2018-09-22T05:26:55.987Z,86.69
2018-09-22T05:29:25.222Z,86.65
2018-09-22T05:31:53.827Z,86.73
2018-09-22T05:34:22.773Z,87.22
2018-09-22T05:36:53.133Z,86.30
2018-09-22T05:39:23.296Z,86.81
2018-09-22T05:41:52.425Z,85.78
2018-09-22T05:44:21.791Z,87.05
2018-09-22T05:46:50.938Z,85.84
2018-09-22T05:49:19.502Z,86.68
2018-09-22T05:51:48.475Z,86.43
2018-09-22T05:54:17.419Z,85.81
2018-09-22T05:56:46.184Z,86.21
2018-09-22T05:59:15.392Z,85.67
2018-09-22T06:01:44.098Z,85.04
2018-09-22T06:04:13.194Z,85.45
2018-09-22T06:06:41.583Z,85.53
2018-09-22T06:09:10.796Z,84.93
2018-09-22T06:11:39.222Z,84.23
2018-09-22T06:14:07.700Z,84.12
2018-09-22T06:16:36.344Z,83.96
2018-09-22T06:19:04.914Z,83.58
2018-09-22T06:21:33.483Z,82.83
2018-09-22T06:24:02.158Z,82.84
2018-09-22T06:26:30.875Z,83.43
2018-09-22T06:28:59.552Z,83.53
2018-09-22T06:31:28.309Z,82.87
2018-09-22T06:33:56.880Z,82.91
2018-09-22T06:36:25.578Z,81.55
2018-09-22T06:38:54.219Z,80.15
2018-09-22T06:41:22.769Z,80.08
2018-09-22T06:43:51.920Z,79.83
2018-09-22T06:46:20.600Z,80.09
2018-09-22T06:48:49.061Z,79.73
2018-09-22T06:51:18.415Z,80.21
2018-09-22T06:53:47.000Z,78.71
2018-09-22T06:56:15.854Z,78.33
2018-09-22T06:58:44.300Z,78.96
2018-09-22T07:01:12.951Z,79.12
2018-09-22T07:03:41.365Z,78.64
2018-09-22T07:06:10.185Z,78.13
2018-09-22T07:08:38.852Z,77.95
2018-09-22T07:11:07.332Z,77.86
2018-09-22T07:13:35.743Z,78.45
2018-09-22T07:16:04.141Z,77.71
2018-09-22T07:18:32.689Z,78.03
2018-09-22T07:21:05.988Z,78.00
2018-09-22T07:23:34.518Z,77.58
2018-09-22T07:26:03.064Z,77.44
2018-09-22T07:28:31.544Z,76.88
2018-09-22T07:31:00.138Z,77.25
2018-09-22T07:33:28.508Z,76.74
2018-09-22T07:35:56.962Z,77.33
2018-09-22T07:38:25.443Z,78.26
2018-09-22T07:41:25.240Z,76.88
2018-09-22T07:43:53.623Z,76.06
2018-09-22T07:46:22.117Z,76.32
2018-09-22T07:48:50.499Z,75.40
2018-09-22T07:51:18.931Z,76.10
2018-09-22T07:53:47.338Z,75.73
2018-09-22T07:56:15.798Z,76.20
2018-09-22T07:58:44.297Z,75.48
2018-09-22T08:01:12.810Z,75.82
2018-09-22T08:03:41.271Z,75.44
2018-09-22T08:06:09.744Z,76.36
2018-09-22T08:08:38.255Z,75.67
2018-09-22T08:11:07.149Z,75.02
2018-09-22T08:13:35.775Z,72.94
2018-09-22T08:16:04.408Z,73.36
2018-09-22T08:18:33.008Z,72.26
2018-09-22T08:21:01.660Z,72.90
2018-09-22T08:23:30.179Z,71.07
2018-09-22T08:25:58.958Z,71.14
2018-09-22T08:28:27.788Z,70.99
2018-09-22T08:30:56.746Z,71.00
2018-09-22T08:33:25.421Z,70.80
2018-09-22T08:35:54.151Z,70.77
2018-09-22T08:38:23.760Z,71.63
2018-09-22T08:40:52.484Z,71.25
2018-09-22T08:43:21.335Z,70.81
2018-09-22T08:45:50.065Z,71.07
2018-09-22T08:48:18.861Z,70.59
2018-09-22T08:50:47.849Z,70.40
2018-09-22T08:53:16.513Z,71.08
2018-09-22T08:55:45.211Z,70.45
2018-09-22T08:58:13.829Z,69.13
2018-09-22T09:00:42.539Z,70.40
2018-09-22T09:03:11.172Z,68.90
2018-09-22T09:05:40.386Z,69.56
2018-09-22T09:08:08.999Z,67.68
2018-09-22T09:10:38.877Z,66.38
2018-09-22T09:13:08.343Z,67.92
2018-09-22T09:15:37.434Z,66.69
2018-09-22T09:18:06.096Z,66.29
2018-09-22T09:20:35.342Z,67.10
2018-09-22T09:23:04.106Z,67.42
2018-09-22T09:25:32.933Z,64.27
2018-09-22T09:28:01.826Z,64.44
2018-09-22T09:30:30.789Z,65.33
2018-09-22T09:32:59.512Z,64.53
2018-09-22T09:35:28.155Z,64.62
2018-09-22T09:37:56.959Z,65.04
2018-09-22T09:40:25.796Z,65.24
2018-09-22T09:42:54.750Z,64.58
2018-09-22T09:45:23.531Z,65.15
2018-09-22T09:47:52.523Z,65.64
2018-09-22T09:50:21.540Z,65.23
2018-09-22T09:52:51.040Z,64.60
2018-09-22T09:55:20.100Z,63.09
2018-09-22T09:57:48.828Z,63.55
2018-09-22T10:00:21.885Z,62.82
2018-09-22T10:02:50.538Z,62.31
2018-09-22T10:05:19.700Z,62.03
2018-09-22T10:07:48.623Z,61.50
2018-09-22T10:10:17.945Z,61.73
2018-09-22T10:12:46.735Z,60.40
2018-09-22T10:15:16.036Z,60.13
2018-09-22T10:17:45.554Z,60.55
2018-09-22T10:20:14.452Z,59.50
2018-09-22T10:22:44.061Z,58.68
2018-09-22T10:25:13.248Z,59.19
2018-09-22T10:27:42.129Z,58.48
2018-09-22T10:30:11.041Z,58.96
2018-09-22T10:32:40.830Z,58.72
2018-09-22T10:35:09.487Z,59.92
2018-09-22T10:37:38.499Z,60.63
2018-09-22T10:40:07.377Z,60.01
2018-09-22T10:42:37.020Z,57.63
2018-09-22T10:45:06.591Z,57.02
2018-09-22T10:47:35.506Z,57.38
2018-09-22T10:50:04.480Z,56.48
2018-09-22T10:52:34.828Z,56.71
2018-09-22T10:55:04.241Z,56.06
2018-09-22T10:57:33.142Z,56.43
2018-09-22T11:00:02.069Z,55.19
2018-09-22T11:02:30.779Z,55.32
2018-09-22T11:04:59.698Z,55.81
2018-09-22T11:07:28.853Z,54.26
2018-09-22T11:09:58.058Z,55.20
2018-09-22T11:12:26.620Z,55.87
2018-09-22T11:14:55.635Z,55.46
2018-09-22T11:17:24.260Z,55.58
2018-09-22T11:19:52.983Z,54.67
2018-09-22T11:22:21.569Z,55.04
2018-09-22T11:24:50.089Z,55.10
2018-09-22T11:27:18.997Z,55.80
2018-09-22T11:29:47.459Z,55.94
2018-09-22T11:32:16.353Z,55.56
2018-09-22T11:34:45.053Z,55.04
2018-09-22T11:37:13.676Z,55.62
2018-09-22T11:39:42.375Z,55.27
2018-09-22T11:42:11.430Z,56.65
2018-09-22T11:44:40.044Z,57.05
2018-09-22T11:47:08.587Z,56.33
2018-09-22T11:49:37.873Z,56.27
2018-09-22T11:52:07.336Z,55.65
2018-09-22T11:54:36.219Z,54.42
2018-09-22T11:57:05.109Z,53.45
2018-09-22T11:59:33.588Z,53.92
2018-09-22T12:02:02.252Z,53.92
2018-09-22T12:04:31.329Z,54.64
2018-09-22T12:07:00.282Z,53.78
2018-09-22T12:09:29.138Z,53.54
2018-09-22T12:11:57.862Z,52.68
2018-09-22T12:14:27.370Z,52.68
2018-09-22T12:16:56.357Z,50.51
2018-09-22T12:19:25.132Z,51.10
2018-09-22T12:21:54.569Z,51.56
2018-09-22T12:24:23.336Z,51.19
2018-09-22T12:26:53.032Z,52.01
2018-09-22T12:29:22.098Z,51.82
2018-09-22T12:31:50.872Z,51.99
2018-09-22T12:34:20.230Z,53.70
2018-09-22T12:36:49.441Z,53.91
2018-09-22T12:39:19.728Z,53.92
2018-09-22T12:41:48.660Z,54.17
2018-09-22T12:44:17.758Z,54.43
2018-09-22T12:46:47.055Z,54.81
2018-09-22T12:49:16.336Z,54.53
2018-09-22T12:51:45.321Z,53.20
2018-09-22T12:54:14.420Z,53.16
2018-09-22T12:56:42.910Z,51.58
2018-09-22T12:59:11.715Z,53.84
2018-09-22T13:01:41.598Z,53.42
2018-09-22T13:08:21.925Z,53.53
2018-09-22T13:10:50.541Z,55.16
2018-09-22T13:19:03.945Z,54.18
2018-09-22T13:21:34.005Z,53.96
2018-09-22T13:24:05.151Z,53.54
2018-09-22T13:26:35.093Z,52.58
2018-09-22T13:29:04.115Z,54.79
2018-09-22T13:31:33.487Z,54.59
2018-09-22T13:34:02.083Z,53.46
2018-09-22T13:36:31.131Z,54.76
2018-09-22T13:38:59.902Z,53.38
2018-09-22T13:41:28.671Z,54.63
2018-09-22T13:43:57.877Z,54.18
2018-09-22T13:46:26.533Z,53.37
2018-09-22T13:48:55.936Z,53.44
2018-09-22T13:51:24.917Z,53.61
2018-09-22T13:53:53.938Z,54.89
2018-09-22T13:56:23.507Z,54.65
2018-09-22T13:58:52.125Z,54.77
2018-09-22T14:01:21.414Z,55.07
2018-09-22T14:03:50.673Z,54.57
2018-09-22T14:06:19.925Z,54.61
2018-09-22T14:08:49.424Z,54.76
2018-09-22T14:11:19.474Z,54.62
2018-09-22T14:13:49.864Z,54.67
2018-09-22T14:16:19.362Z,53.66
2018-09-22T14:18:48.301Z,53.74
2018-09-22T14:21:18.687Z,54.02
2018-09-22T14:23:47.959Z,54.76
2018-09-22T14:26:18.737Z,54.64
2018-09-22T14:28:47.940Z,53.35
2018-09-22T14:31:17.449Z,54.00
2018-09-22T14:33:46.611Z,52.71
2018-09-22T14:36:15.848Z,53.78
2018-09-22T14:38:45.345Z,53.71
2018-09-22T14:41:16.994Z,53.21
2018-09-22T14:43:46.364Z,53.34
2018-09-22T14:46:16.250Z,53.58
2018-09-22T14:48:47.127Z,53.47
2018-09-22T14:51:17.218Z,53.65
2018-09-22T14:53:45.899Z,53.56
2018-09-22T14:56:15.623Z,53.32
2018-09-22T14:58:44.709Z,53.99
2018-09-22T15:01:13.706Z,52.95
2018-09-22T15:03:43.286Z,53.26
2018-09-22T15:06:13.432Z,53.20
2018-09-22T15:08:42.814Z,53.44
2018-09-22T15:11:13.182Z,53.91
2018-09-22T15:13:42.989Z,53.60
2018-09-22T15:16:12.021Z,53.16
2018-09-22T15:18:42.113Z,53.58
2018-09-22T15:21:12.400Z,52.96
2018-09-22T15:23:41.844Z,52.68
2018-09-22T15:26:13.045Z,53.53
2018-09-22T15:28:44.377Z,53.83
2018-09-22T15:31:13.625Z,51.74
2018-09-22T15:33:42.709Z,51.24
2018-09-22T15:36:11.946Z,51.39
2018-09-22T15:38:41.445Z,50.62
2018-09-22T15:41:10.455Z,51.73
2018-09-22T15:43:39.971Z,51.52
2018-09-22T15:46:09.218Z,50.69
2018-09-22T15:48:38.425Z,51.74
2018-09-22T15:51:07.054Z,50.60
2018-09-22T15:53:36.258Z,51.53
2018-09-22T15:56:05.416Z,51.05
2018-09-22T15:58:35.256Z,50.99
2018-09-22T16:01:05.806Z,50.79
2018-09-22T16:03:34.765Z,51.04
2018-09-22T16:06:04.732Z,55.05
2018-09-22T16:08:33.527Z,58.88
2018-09-22T16:11:02.167Z,60.17
2018-09-22T16:13:30.838Z,61.28
2018-09-22T16:16:00.395Z,63.02
2018-09-22T16:18:29.122Z,65.09
2018-09-22T16:20:58.097Z,65.91
2018-09-22T16:23:26.722Z,67.23
2018-09-22T16:25:55.502Z,67.86
2018-09-22T16:28:25.197Z,67.92
2018-09-22T16:30:54.094Z,68.77
2018-09-22T16:33:22.885Z,70.93
2018-09-22T16:35:52.091Z,71.96
2018-09-22T16:38:21.323Z,73.05
2018-09-22T16:40:50.178Z,76.09
2018-09-22T16:43:18.905Z,77.96
2018-09-22T16:45:48.052Z,77.39
2018-09-22T16:48:17.146Z,78.80
2018-09-22T16:50:46.676Z,79.43
2018-09-22T16:53:16.273Z,78.00
2018-09-22T16:55:45.058Z,79.64
2018-09-22T16:58:13.749Z,79.42
2018-09-22T17:00:42.527Z,79.70
2018-09-22T17:03:11.428Z,77.87
2018-09-22T17:05:40.306Z,78.92
2018-09-22T17:08:09.099Z,78.57
2018-09-22T17:10:37.995Z,80.02
2018-09-22T17:13:07.137Z,79.16
2018-09-22T17:15:35.843Z,79.01
2018-09-22T17:18:04.915Z,79.92
2018-09-22T17:20:33.717Z,79.59
2018-09-22T17:23:02.323Z,79.65
2018-09-22T17:25:31.216Z,80.54
2018-09-22T17:28:00.319Z,80.43
2018-09-22T17:30:29.091Z,80.12
2018-09-22T17:32:57.697Z,80.11
2018-09-22T17:35:27.402Z,79.49
2018-09-22T17:37:56.107Z,80.14
2018-09-22T17:40:25.471Z,80.52
2018-09-22T17:42:54.670Z,79.99
2018-09-22T17:45:24.090Z,80.77
2018-09-22T17:47:53.470Z,81.27
2018-09-22T17:50:22.607Z,81.47
2018-09-22T17:52:51.682Z,81.27
2018-09-22T17:55:20.725Z,81.40
2018-09-22T17:57:49.638Z,80.88
2018-09-22T18:00:18.703Z,81.56
2018-09-22T18:02:47.600Z,82.05
2018-09-22T18:05:16.227Z,83.44
2018-09-22T18:07:45.139Z,84.25
2018-09-22T18:10:13.965Z,85.26
2018-09-22T18:12:42.558Z,86.46
2018-09-22T18:15:11.641Z,86.62
2018-09-22T18:17:40.584Z,88.03
2018-09-22T18:20:09.835Z,89.13
2018-09-22T18:22:38.974Z,89.97
2018-09-22T18:25:08.451Z,91.35
2018-09-22T18:27:38.041Z,91.45
2018-09-22T18:30:07.454Z,92.08
2018-09-22T18:32:36.236Z,94.50
2018-09-22T18:35:05.930Z,94.45
2018-09-22T18:37:36.011Z,94.77
2018-09-22T18:40:05.369Z,95.74
2018-09-22T18:42:35.293Z,95.43
2018-09-22T18:45:04.598Z,96.94
2018-09-22T18:47:33.504Z,96.74
2018-09-22T18:50:02.573Z,97.91
2018-09-22T18:52:31.973Z,96.83
2018-09-22T18:55:02.189Z,97.01
2018-09-22T18:57:31.165Z,96.28
2018-09-22T19:00:00.271Z,96.82
2018-09-22T19:02:29.274Z,97.17
2018-09-22T19:04:58.083Z,96.27
2018-09-22T19:07:26.819Z,95.59
2018-09-22T19:09:55.493Z,97.98
2018-09-22T19:12:24.293Z,97.59
2018-09-22T19:15:04.088Z,97.63
2018-09-22T19:17:36.246Z,96.70
2018-09-22T19:20:10.577Z,97.69
2018-09-22T19:22:47.548Z,96.67
2018-09-22T19:25:19.503Z,98.51
2018-09-22T19:27:53.209Z,98.41
2018-09-22T19:30:28.808Z,98.61
2018-09-22T19:33:00.827Z,98.93
2018-09-22T19:35:32.800Z,99.23
2018-09-22T19:38:07.065Z,98.22
2018-09-22T19:40:41.417Z,98.71
2018-09-22T19:43:18.468Z,97.29
2018-09-22T19:45:50.306Z,98.26
2018-09-22T19:48:55.164Z,98.86
2018-09-22T19:51:25.515Z,99.04
2018-09-22T19:53:56.127Z,99.46
2018-09-22T19:56:24.972Z,99.28
2018-09-22T19:58:53.769Z,99.03
2018-09-22T20:01:22.778Z,100.00
2018-09-22T20:03:51.186Z,100.00
2018-09-22T20:06:19.705Z,99.00
2018-09-22T20:08:48.487Z,99.11
2018-09-22T20:11:17.344Z,99.81
2018-09-22T20:13:46.206Z,99.64
2018-09-22T20:16:15.233Z,100.00
2018-09-22T20:18:44.970Z,100.00
2018-09-22T20:21:14.194Z,100.00
2018-09-22T20:23:42.963Z,100.00
2018-09-22T20:26:11.996Z,100.00
2018-09-22T20:28:40.814Z,100.00
2018-09-22T20:31:09.681Z,100.00
2018-09-22T20:33:38.408Z,99.98
2018-09-22T20:36:07.236Z,100.00
2018-09-22T20:41:28.848Z,100.00
2018-09-22T20:43:57.873Z,100.00
2018-09-22T20:46:26.693Z,100.00
2018-09-22T20:48:55.158Z,100.00
2018-09-22T20:51:24.001Z,100.00
2018-09-22T20:53:52.434Z,100.00
2018-09-22T20:56:20.944Z,100.00
2018-09-22T20:58:49.393Z,100.00
2018-09-22T21:01:19.277Z,100.00
2018-09-22T21:03:47.633Z,100.00
2018-09-22T21:06:16.039Z,99.46
2018-09-22T21:08:44.521Z,99.94
2018-09-22T21:11:13.044Z,100.00
2018-09-22T21:13:41.574Z,99.43
2018-09-22T21:16:10.116Z,99.90
2018-09-22T21:18:38.725Z,100.00
2018-09-22T21:21:07.184Z,99.82
2018-09-22T21:23:36.153Z,99.64
2018-09-22T21:26:04.619Z,99.48
2018-09-22T21:28:33.735Z,99.06
2018-09-22T21:31:02.195Z,98.90
2018-09-22T21:33:30.694Z,99.70
2018-09-22T21:35:59.831Z,99.94
2018-09-22T21:38:28.316Z,99.42
2018-09-22T21:40:56.793Z,99.64
2018-09-22T21:43:25.337Z,99.19
2018-09-22T21:45:53.773Z,99.66
2018-09-22T21:48:22.255Z,100.00
2018-09-22T21:50:50.730Z,98.83
2018-09-22T21:53:19.755Z,98.10
2018-09-22T21:55:48.914Z,99.29
2018-09-22T21:58:17.405Z,98.78
2018-09-22T22:00:50.153Z,99.58
2018-09-22T22:03:49.190Z,99.26
2018-09-22T22:06:17.683Z,99.42
2018-09-22T22:08:46.269Z,98.77
2018-09-22T22:11:14.894Z,99.38
2018-09-22T22:13:43.522Z,99.65
2018-09-22T22:16:12.006Z,99.01
2018-09-22T22:18:40.527Z,98.17
2018-09-22T22:21:09.174Z,98.79
2018-09-22T22:23:37.690Z,98.69
2018-09-22T22:26:06.324Z,98.71
2018-09-22T22:28:34.797Z,98.89
2018-09-22T22:31:03.550Z,97.74
2018-09-22T22:33:32.011Z,97.94
2018-09-22T22:36:00.778Z,98.99
2018-09-22T22:38:29.338Z,98.92
2018-09-22T22:40:57.810Z,98.86
2018-09-22T22:43:26.483Z,98.63
2018-09-22T22:45:54.981Z,99.53
2018-09-22T22:48:23.528Z,99.67
2018-09-22T22:50:52.049Z,100.00
2018-09-22T22:53:20.479Z,99.41
2018-09-22T22:55:48.943Z,98.93
2018-09-22T22:58:17.439Z,99.48
2018-09-22T23:00:46.032Z,99.33
2018-09-22T23:03:15.193Z,99.50
2018-09-22T23:05:43.674Z,98.38
2018-09-22T23:08:12.126Z,98.88
2018-09-22T23:10:41.302Z,98.08
2018-09-22T23:13:10.140Z,98.29
2018-09-22T23:15:38.613Z,98.82
2018-09-22T23:18:07.213Z,97.84
2018-09-22T23:20:36.203Z,98.29
2018-09-22T23:23:04.569Z,97.93
2018-09-22T23:25:33.023Z,98.24
2018-09-22T23:28:02.556Z,98.83
2018-09-22T23:30:30.982Z,99.03
2018-09-22T23:32:59.343Z,98.33
2018-09-22T23:35:27.704Z,98.63
2018-09-22T23:37:57.277Z,97.87
2018-09-22T23:40:25.967Z,98.82
2018-09-22T23:42:54.442Z,98.67
2018-09-22T23:45:22.863Z,98.85
2018-09-22T23:47:51.279Z,98.48
2018-09-22T23:50:19.739Z,98.76
2018-09-22T23:52:48.159Z,99.14
2018-09-22T23:55:23.228Z,98.89
2018-09-22T23:57:51.873Z,98.63
